Time;durP1;ratioP1;P1;durP2;ratioP2;P2;SDS_P1;SDS_P2;PMS_P1;PMS_P2;Temp;Humidity;BMP_temperature;BMP_pressure;BME280_temperature;BME280_humidity;BME280_pressure;Samples;Min_cycle;Max_cycle;Signal;HPM_P1;HPM_P2
2023/02/03 00:01:09;;;;;;;9.80;2.50;;;13.00;74.30;;;;;;4943561;28;20039;-80
2023/02/03 00:03:35;;;;;;;8.20;2.10;;;13.00;74.80;;;;;;4945496;29;20046;-83
2023/02/03 00:06:03;;;;;;;6.45;1.80;;;13.00;74.30;;;;;;4945694;28;20040;-83
2023/02/03 00:08:30;;;;;;;11.55;2.92;;;13.00;74.20;;;;;;4967132;28;20046;-83
2023/02/03 00:10:57;;;;;;;6.25;1.10;;;13.00;74.30;;;;;;4950623;28;20059;-83
2023/02/03 00:13:24;;;;;;;6.93;2.10;;;13.00;74.30;;;;;;4956626;28;20035;-83
2023/02/03 00:15:50;;;;;;;10.63;1.98;;;13.00;74.20;;;;;;4953664;28;20043;-83
2023/02/03 00:18:16;;;;;;;9.07;2.15;;;13.00;74.20;;;;;;4948652;29;20391;-83
2023/02/03 00:20:42;;;;;;;9.10;2.75;;;13.00;74.20;;;;;;4945791;29;20035;-82
2023/02/03 00:23:10;;;;;;;9.55;1.80;;;13.00;74.20;;;;;;4948874;28;20589;-82
2023/02/03 00:25:37;;;;;;;8.57;2.13;;;13.00;74.20;;;;;;4945316;29;20051;-81
2023/02/03 00:28:04;;;;;;;10.40;2.53;;;13.00;74.20;;;;;;4943246;28;20038;-81
2023/02/03 00:30:33;;;;;;;8.43;2.00;;;13.00;74.70;;;;;;4940484;29;20043;-81
2023/02/03 00:33:00;;;;;;;9.57;2.25;;;12.90;74.00;;;;;;4947524;28;20126;-81
2023/02/03 00:35:26;;;;;;;13.60;3.45;;;12.90;74.00;;;;;;4931933;29;20035;-86
2023/02/03 00:37:54;;;;;;;7.35;1.83;;;12.90;74.00;;;;;;4929016;29;20091;-90
2023/02/03 00:40:23;;;;;;;12.45;3.25;;;12.90;74.00;;;;;;4950015;29;20031;-87
2023/02/03 00:42:49;;;;;;;5.90;1.25;;;13.00;74.20;;;;;;4943488;28;20499;-87
2023/02/03 00:45:16;;;;;;;5.93;1.98;;;12.90;74.00;;;;;;4944247;29;20043;-86
2023/02/03 00:47:42;;;;;;;8.38;2.20;;;12.90;74.00;;;;;;4949105;28;20043;-86
2023/02/03 00:50:09;;;;;;;6.75;2.13;;;12.90;74.00;;;;;;4963497;28;20035;-87
2023/02/03 00:52:35;;;;;;;8.50;2.33;;;12.90;74.00;;;;;;4957407;28;20035;-89
2023/02/03 00:55:02;;;;;;;6.78;2.00;;;12.90;74.00;;;;;;4976092;28;20587;-90
2023/02/03 00:57:28;;;;;;;7.43;1.95;;;12.90;74.00;;;;;;4966754;29;20147;-90
2023/02/03 00:59:54;;;;;;;9.52;1.60;;;12.90;74.00;;;;;;4965163;28;20225;-89
2023/02/03 01:02:21;;;;;;;6.88;1.98;;;12.90;74.00;;;;;;4966359;28;20545;-89
2023/02/03 01:04:47;;;;;;;10.68;2.13;;;12.90;74.00;;;;;;4957248;28;20142;-90
2023/02/03 01:07:13;;;;;;;10.20;2.70;;;12.90;74.00;;;;;;4929667;29;20508;-85
2023/02/03 01:09:39;;;;;;;11.70;2.78;;;12.90;74.00;;;;;;4950058;28;20069;-86
2023/02/03 01:12:05;;;;;;;7.57;1.98;;;12.80;73.70;;;;;;4942402;28;20046;-86
2023/02/03 01:14:33;;;;;;;10.05;1.73;;;12.90;73.90;;;;;;4947518;28;20203;-84
2023/02/03 01:17:00;;;;;;;8.25;2.95;;;12.80;73.70;;;;;;4947366;28;20031;-86
2023/02/03 01:19:26;;;;;;;10.93;3.08;;;12.90;73.90;;;;;;4965158;28;20043;-84
2023/02/03 01:21:52;;;;;;;10.55;1.92;;;12.80;73.70;;;;;;4942810;28;20026;-84
2023/02/03 01:24:18;;;;;;;11.70;2.22;;;12.80;73.70;;;;;;4959463;28;20035;-83
2023/02/03 01:26:44;;;;;;;11.85;2.22;;;12.80;73.70;;;;;;4946338;29;20055;-83
2023/02/03 01:29:10;;;;;;;9.40;1.88;;;12.80;73.70;;;;;;4946554;28;20550;-83
2023/02/03 01:31:38;;;;;;;8.00;2.42;;;12.80;73.70;;;;;;4942108;29;20428;-87
2023/02/03 01:34:10;;;;;;;8.50;2.17;;;12.80;73.70;;;;;;4947873;29;20037;-87
2023/02/03 01:36:36;;;;;;;5.55;1.88;;;12.80;73.70;;;;;;4943741;28;20035;-88
2023/02/03 01:39:04;;;;;;;9.85;1.85;;;12.80;73.70;;;;;;4946580;29;20027;-86
2023/02/03 01:41:33;;;;;;;8.70;1.83;;;12.80;73.70;;;;;;4944240;29;20463;-85
2023/02/03 01:44:00;;;;;;;10.32;2.70;;;12.80;73.70;;;;;;4944445;29;20082;-85
2023/02/03 01:46:31;;;;;;;9.40;2.95;;;12.80;73.70;;;;;;4932037;28;20064;-85
2023/02/03 01:49:17;;;;;;;5.22;1.98;;;12.80;73.70;;;;;;4953813;28;20034;-84
2023/02/03 01:51:45;;;;;;;8.85;2.15;;;12.80;73.70;;;;;;4947586;28;20106;-84
2023/02/03 01:54:27;;;;;;;9.43;2.17;;;12.80;73.70;;;;;;4950825;28;20442;-84
2023/02/03 01:56:57;;;;;;;7.25;2.20;;;12.70;73.50;;;;;;4938221;29;20031;-86
2023/02/03 01:59:24;;;;;;;4.88;1.88;;;12.80;73.70;;;;;;4930478;28;20484;-85
2023/02/03 02:01:53;;;;;;;8.13;1.95;;;12.80;73.70;;;;;;4947267;28;20188;-85
2023/02/03 02:04:20;;;;;;;8.98;2.88;;;12.70;73.50;;;;;;4944622;28;20042;-86
2023/02/03 02:06:47;;;;;;;9.35;1.80;;;12.80;73.60;;;;;;4945389;28;20039;-87
2023/02/03 02:09:14;;;;;;;9.23;2.35;;;12.70;73.50;;;;;;4963766;28;20096;-85
2023/02/03 02:11:41;;;;;;;8.95;2.00;;;12.80;73.70;;;;;;4939459;28;20046;-86
2023/02/03 02:14:08;;;;;;;5.40;1.75;;;12.80;73.70;;;;;;4945320;28;20044;-86
2023/02/03 02:17:02;;;;;;;6.55;1.55;;;12.70;73.50;;;;;;4938623;29;20035;-85
2023/02/03 02:19:34;;;;;;;6.97;1.95;;;12.70;73.60;;;;;;4943977;28;20126;-84
2023/02/03 02:22:22;;;;;;;6.40;2.13;;;12.70;73.50;;;;;;4956338;28;20039;-88
2023/02/03 02:25:19;;;;;;;9.57;2.55;;;12.70;73.50;;;;;;4953687;28;20066;-83
2023/02/03 02:28:08;;;;;;;7.43;1.70;;;12.70;73.50;;;;;;4943749;28;20143;-87
2023/02/03 02:30:37;;;;;;;7.47;1.88;;;12.70;73.50;;;;;;4943197;29;20407;-88
2023/02/03 02:33:35;;;;;;;9.00;2.13;;;12.70;73.50;;;;;;4941263;29;20047;-86
2023/02/03 02:36:25;;;;;;;7.85;2.67;;;12.70;73.50;;;;;;4934721;29;20027;-88
2023/02/03 02:39:09;;;;;;;6.00;1.40;;;12.70;73.50;;;;;;4942048;29;20047;-85
2023/02/03 02:41:42;;;;;;;10.93;2.70;;;12.70;73.50;;;;;;4936109;28;20099;-85
2023/02/03 02:44:38;;;;;;;8.18;1.77;;;12.70;73.50;;;;;;4943571;29;20066;-85
2023/02/03 02:47:13;;;;;;;4.00;1.45;;;12.70;73.60;;;;;;4945094;28;20046;-87
2023/02/03 02:49:51;;;;;;;9.07;1.83;;;12.70;73.50;;;;;;4941451;29;20049;-86
2023/02/03 02:52:19;;;;;;;5.05;1.90;;;12.70;73.50;;;;;;4948647;28;20043;-85
2023/02/03 02:54:51;;;;;;;11.20;2.03;;;12.70;73.50;;;;;;4945987;29;20053;-85
2023/02/03 02:57:20;;;;;;;11.38;2.83;;;12.70;73.50;;;;;;4946468;29;20035;-85
2023/02/03 02:59:48;;;;;;;7.35;1.75;;;12.70;73.50;;;;;;4946065;29;20027;-87
2023/02/03 03:02:14;;;;;;;5.65;1.33;;;12.70;73.50;;;;;;4946923;29;20031;-88
2023/02/03 03:04:42;;;;;;;6.40;1.45;;;12.70;73.50;;;;;;4944133;29;20126;-88
2023/02/03 03:07:29;;;;;;;7.53;1.50;;;12.70;73.50;;;;;;4938468;29;20063;-86
2023/02/03 03:10:05;;;;;;;7.38;1.80;;;12.60;73.30;;;;;;4945082;29;20160;-85
2023/02/03 03:12:34;;;;;;;7.57;2.22;;;12.70;73.50;;;;;;4934876;28;20039;-86
2023/02/03 03:15:06;;;;;;;8.45;1.65;;;12.60;73.30;;;;;;4942443;29;20063;-85
2023/02/03 03:17:38;;;;;;;5.22;1.45;;;12.70;73.50;;;;;;4930115;29;20040;-86
2023/02/03 03:20:10;;;;;;;8.50;1.75;;;12.60;73.30;;;;;;4937403;29;20042;-86
2023/02/03 03:22:46;;;;;;;7.35;1.90;;;12.60;73.30;;;;;;4947531;29;20039;-86
2023/02/03 03:25:16;;;;;;;5.15;1.70;;;12.60;73.30;;;;;;4948252;28;20137;-85
2023/02/03 03:27:48;;;;;;;8.93;1.90;;;12.60;73.30;;;;;;4942763;28;20122;-88
2023/02/03 03:30:21;;;;;;;8.17;2.13;;;12.60;73.30;;;;;;4940504;29;20074;-88
2023/02/03 03:32:48;;;;;;;5.35;1.45;;;12.60;73.30;;;;;;4940718;28;20059;-87
2023/02/03 03:35:15;;;;;;;7.93;2.15;;;12.60;73.30;;;;;;4942218;29;20062;-88
2023/02/03 03:37:56;;;;;;;8.05;1.60;;;12.60;73.30;;;;;;4948702;28;20035;-87
2023/02/03 03:40:33;;;;;;;6.13;1.60;;;12.60;73.40;;;;;;4935261;29;20138;-87
2023/02/03 03:43:07;;;;;;;8.27;1.80;;;12.60;73.40;;;;;;4944755;28;20049;-86
2023/02/03 03:45:57;;;;;;;7.32;1.58;;;12.60;73.30;;;;;;4950716;29;20415;-86
2023/02/03 03:48:46;;;;;;;7.07;2.10;;;12.60;73.30;;;;;;4946025;29;20114;-85
2023/02/03 03:51:32;;;;;;;4.28;1.83;;;12.60;73.30;;;;;;4950861;28;20039;-85
2023/02/03 03:54:04;;;;;;;8.02;1.40;;;12.60;73.30;;;;;;4949201;29;20035;-85
2023/02/03 03:56:42;;;;;;;6.50;1.50;;;12.60;73.30;;;;;;4949671;28;20027;-86
2023/02/03 03:59:11;;;;;;;5.88;1.95;;;12.60;73.30;;;;;;4939600;28;20066;-85
2023/02/03 04:01:38;;;;;;;7.53;1.52;;;12.60;73.30;;;;;;4951115;29;20049;-85
2023/02/03 04:04:08;;;;;;;7.40;1.45;;;12.60;73.30;;;;;;4955756;28;20039;-83
2023/02/03 04:06:37;;;;;;;6.45;1.92;;;12.60;73.30;;;;;;4941090;28;20035;-86
2023/02/03 04:09:04;;;;;;;6.95;2.58;;;12.60;73.30;;;;;;4949330;28;20228;-86
2023/02/03 04:14:14;;;;;;;5.65;1.50;;;12.50;73.20;;;;;;4950515;28;20047;-84
2023/02/03 04:16:40;;;;;;;7.15;1.63;;;12.50;73.20;;;;;;4941432;28;20443;-88
2023/02/03 04:19:06;;;;;;;5.57;1.63;;;12.50;73.20;;;;;;4949394;29;20043;-85
2023/02/03 04:21:32;;;;;;;7.68;2.03;;;12.50;73.20;;;;;;4941770;28;20051;-86
2023/02/03 04:23:58;;;;;;;8.85;1.67;;;12.60;73.40;;;;;;4947090;29;20054;-86
2023/02/03 04:26:24;;;;;;;7.97;1.73;;;12.50;73.20;;;;;;4948430;29;20118;-87
2023/02/03 04:28:50;;;;;;;7.60;2.33;;;12.60;73.40;;;;;;4947469;28;20051;-87
2023/02/03 04:31:16;;;;;;;5.45;2.33;;;12.60;73.40;;;;;;4950927;28;20043;-87
2023/02/03 04:33:42;;;;;;;5.65;2.10;;;12.60;73.40;;;;;;4946932;29;20036;-88
2023/02/03 04:36:08;;;;;;;5.53;1.45;;;12.60;73.30;;;;;;4940018;29;20043;-87
2023/02/03 04:38:34;;;;;;;9.60;1.95;;;12.60;73.40;;;;;;4949192;29;20038;-86
2023/02/03 04:41:00;;;;;;;7.43;1.50;;;12.60;73.40;;;;;;4943353;29;20066;-86
2023/02/03 04:43:26;;;;;;;7.95;1.70;;;12.60;73.30;;;;;;4939847;28;20097;-86
2023/02/03 04:45:52;;;;;;;7.13;1.52;;;12.60;73.30;;;;;;4945688;28;20044;-86
2023/02/03 04:48:18;;;;;;;7.75;2.15;;;12.60;73.30;;;;;;4943790;29;20089;-88
2023/02/03 04:50:43;;;;;;;4.50;1.98;;;12.60;73.30;;;;;;4947708;28;20055;-87
2023/02/03 04:53:09;;;;;;;9.70;2.03;;;12.70;73.40;;;;;;4950884;28;20034;-87
2023/02/03 04:55:35;;;;;;;7.20;2.90;;;12.60;73.20;;;;;;4948100;28;20046;-87
2023/02/03 04:58:01;;;;;;;7.50;1.73;;;12.60;73.20;;;;;;4946053;29;20077;-88
2023/02/03 05:00:28;;;;;;;5.68;1.75;;;12.60;73.20;;;;;;4940167;29;20039;-87
2023/02/03 05:02:54;;;;;;;6.45;1.38;;;12.60;73.20;;;;;;4953634;28;20082;-86
2023/02/03 05:05:20;;;;;;;4.78;1.50;;;12.60;73.20;;;;;;4947905;29;20562;-87
2023/02/03 05:07:46;;;;;;;5.05;1.20;;;12.60;73.20;;;;;;4933005;29;20031;-87
2023/02/03 05:10:12;;;;;;;6.07;1.70;;;12.60;73.20;;;;;;4949523;29;20174;-90
2023/02/03 05:12:38;;;;;;;5.07;1.80;;;12.60;73.20;;;;;;4949892;28;20065;-86
2023/02/03 05:15:05;;;;;;;7.40;1.40;;;12.60;73.20;;;;;;4952330;29;20045;-86
2023/02/03 05:17:31;;;;;;;4.60;1.40;;;12.60;73.20;;;;;;4945789;28;20169;-86
2023/02/03 05:19:57;;;;;;;5.65;1.30;;;12.60;73.20;;;;;;4946602;29;20047;-86
2023/02/03 05:22:22;;;;;;;4.78;1.27;;;12.50;73.00;;;;;;4950078;28;20046;-85
2023/02/03 05:24:48;;;;;;;7.88;1.45;;;12.60;73.20;;;;;;4941116;29;20045;-86
2023/02/03 05:27:14;;;;;;;4.10;1.10;;;12.60;73.20;;;;;;4949757;28;20368;-85
2023/02/03 05:29:40;;;;;;;5.72;1.20;;;12.60;73.80;;;;;;4940079;28;20056;-85
2023/02/03 05:32:06;;;;;;;5.97;1.25;;;12.50;73.10;;;;;;4944267;29;20035;-85
2023/02/03 05:34:32;;;;;;;5.05;1.58;;;12.60;73.30;;;;;;4948350;29;20031;-81
2023/02/03 05:36:59;;;;;;;5.05;1.60;;;12.50;73.10;;;;;;4931695;29;20047;-80
2023/02/03 05:39:25;;;;;;;9.70;1.92;;;12.50;73.10;;;;;;4948006;28;20031;-84
2023/02/03 05:41:51;;;;;;;6.45;1.27;;;12.60;73.30;;;;;;4949251;28;20039;-83
2023/02/03 05:44:18;;;;;;;5.30;1.50;;;12.50;73.20;;;;;;4944340;28;20435;-83
2023/02/03 05:46:44;;;;;;;6.25;1.73;;;12.50;73.20;;;;;;4937178;28;20039;-86
2023/02/03 05:49:10;;;;;;;4.60;1.17;;;12.60;73.40;;;;;;4942209;29;20031;-86
2023/02/03 05:51:38;;;;;;;6.45;2.00;;;12.60;73.40;;;;;;4943738;29;20129;-86
2023/02/03 05:54:04;;;;;;;5.40;1.83;;;12.60;73.50;;;;;;4939463;29;20028;-87
2023/02/03 05:56:30;;;;;;;5.47;1.75;;;12.60;73.40;;;;;;4923244;29;20575;-90
2023/02/03 05:58:56;;;;;;;6.32;2.40;;;12.60;73.50;;;;;;4948557;29;20115;-91
2023/02/03 06:01:22;;;;;;;8.20;2.00;;;12.60;73.50;;;;;;4952373;28;20035;-84
2023/02/03 06:03:48;;;;;;;6.90;1.35;;;12.60;73.50;;;;;;4945042;28;20203;-87
2023/02/03 06:06:15;;;;;;;5.82;1.67;;;12.60;73.50;;;;;;4938094;28;20046;-85
2023/02/03 06:08:41;;;;;;;8.10;1.73;;;12.60;73.50;;;;;;4950419;28;20031;-91
2023/02/03 06:11:07;;;;;;;2.05;0.93;;;12.60;73.50;;;;;;4965875;29;20031;-94
2023/02/03 06:13:33;;;;;;;8.27;2.00;;;12.60;73.50;;;;;;4975371;28;20040;-89
2023/02/03 06:15:59;;;;;;;4.30;1.42;;;12.60;73.50;;;;;;4970561;28;20090;-93
2023/02/03 06:18:25;;;;;;;11.18;2.42;;;12.60;73.50;;;;;;4960715;28;20107;-94
2023/02/03 06:20:51;;;;;;;5.07;1.70;;;12.60;73.60;;;;;;4961084;28;20035;-92
2023/02/03 06:23:17;;;;;;;8.70;1.80;;;12.60;73.60;;;;;;4939198;28;20054;-77
2023/02/03 06:25:46;;;;;;;5.57;1.80;;;12.70;73.80;;;;;;4940040;29;20094;-80
2023/02/03 06:28:12;;;;;;;5.13;1.42;;;12.70;73.80;;;;;;4940063;28;20052;-82
2023/02/03 06:30:38;;;;;;;14.65;4.78;;;12.70;73.90;;;;;;4942600;29;20094;-78
2023/02/03 06:33:04;;;;;;;5.95;1.80;;;12.70;74.00;;;;;;4942922;28;20035;-77
2023/02/03 06:35:30;;;;;;;7.25;1.65;;;12.70;74.00;;;;;;4920803;29;20126;-78
2023/02/03 06:37:55;;;;;;;3.72;1.25;;;12.70;74.30;;;;;;4942600;29;20039;-79
2023/02/03 06:40:21;;;;;;;7.00;1.88;;;12.80;74.60;;;;;;4942385;28;20054;-81
2023/02/03 06:42:48;;;;;;;8.25;2.75;;;12.90;74.90;;;;;;4943299;28;20114;-79
2023/02/03 06:45:14;;;;;;;5.80;1.55;;;13.00;75.10;;;;;;4938158;29;20650;-80
2023/02/03 06:47:41;;;;;;;6.38;1.80;;;13.10;75.20;;;;;;4941581;28;20031;-77
2023/02/03 06:50:10;;;;;;;12.73;2.25;;;13.20;75.30;;;;;;4939000;28;20122;-81
2023/02/03 06:52:36;;;;;;;6.60;1.83;;;13.30;75.30;;;;;;4942901;29;20039;-83
2023/02/03 06:55:04;;;;;;;4.22;1.65;;;13.40;75.40;;;;;;4943326;28;20578;-80
2023/02/03 06:57:31;;;;;;;8.68;2.65;;;13.50;75.60;;;;;;4943661;28;20117;-81
2023/02/03 06:59:57;;;;;;;4.43;1.55;;;13.50;75.50;;;;;;4940245;28;20042;-81
2023/02/03 07:02:23;;;;;;;10.98;3.05;;;13.60;75.70;;;;;;4944894;28;20380;-87
2023/02/03 07:04:49;;;;;;;12.20;3.35;;;13.70;75.80;;;;;;4942603;28;20031;-86
2023/02/03 07:07:15;;;;;;;9.13;3.55;;;13.80;76.00;;;;;;4944423;29;20499;-86
2023/02/03 07:09:42;;;;;;;7.65;2.70;;;13.80;76.00;;;;;;4951795;28;20042;-90
2023/02/03 07:12:08;;;;;;;6.85;2.45;;;13.90;76.30;;;;;;4938085;29;20047;-82
2023/02/03 07:14:35;;;;;;;11.40;3.45;;;14.00;76.50;;;;;;4945622;28;20130;-85
2023/02/03 07:17:02;;;;;;;5.70;2.40;;;14.00;76.50;;;;;;4945012;28;20039;-83
2023/02/03 07:19:28;;;;;;;9.52;2.30;;;14.10;76.70;;;;;;4935319;28;20570;-83
2023/02/03 07:21:54;;;;;;;5.70;2.03;;;14.10;76.80;;;;;;4948237;28;20066;-81
2023/02/03 07:24:20;;;;;;;5.95;2.42;;;14.20;76.90;;;;;;4941062;29;20551;-82
2023/02/03 07:26:46;;;;;;;6.05;2.55;;;14.30;77.10;;;;;;4944912;29;20043;-80
2023/02/03 07:29:12;;;;;;;4.93;2.70;;;14.30;77.00;;;;;;4941455;28;20062;-81
2023/02/03 07:31:39;;;;;;;7.30;3.38;;;14.30;77.10;;;;;;4942883;28;20047;-85
2023/02/03 07:34:05;;;;;;;6.53;2.00;;;14.40;77.30;;;;;;4940639;28;20499;-82
2023/02/03 07:36:31;;;;;;;11.88;2.88;;;14.50;77.50;;;;;;4941935;29;20028;-83
2023/02/03 07:38:58;;;;;;;6.03;1.73;;;14.50;77.50;;;;;;4934215;29;20031;-82
2023/02/03 07:41:24;;;;;;;7.55;2.13;;;14.50;77.40;;;;;;4941670;29;20039;-82
2023/02/03 07:43:49;;;;;;;4.60;1.85;;;14.50;77.30;;;;;;4945158;29;20046;-82
2023/02/03 07:46:16;;;;;;;8.40;2.78;;;14.60;77.50;;;;;;4932890;28;20047;-83
2023/02/03 07:48:42;;;;;;;8.88;2.13;;;14.60;77.50;;;;;;4946109;28;20507;-83
2023/02/03 07:51:08;;;;;;;6.00;2.00;;;14.60;77.50;;;;;;4933983;28;20050;-83
2023/02/03 07:53:33;;;;;;;6.30;1.65;;;14.60;77.50;;;;;;4951725;28;20074;-82
2023/02/03 07:56:04;;;;;;;6.40;1.83;;;14.70;77.60;;;;;;4962004;28;20097;-81
2023/02/03 07:58:30;;;;;;;8.77;2.38;;;14.70;77.60;;;;;;4952208;28;20482;-81
2023/02/03 08:00:57;;;;;;;4.95;1.50;;;14.70;77.60;;;;;;4947337;28;20031;-83
2023/02/03 08:03:23;;;;;;;8.02;2.15;;;14.70;78.00;;;;;;4937788;28;20110;-80
2023/02/03 08:05:49;;;;;;;11.50;3.42;;;14.70;77.80;;;;;;4944607;28;20606;-81
2023/02/03 08:08:15;;;;;;;9.07;1.83;;;14.60;76.90;;;;;;4944427;28;20046;-82
2023/02/03 08:10:41;;;;;;;7.68;2.42;;;14.60;76.80;;;;;;4927541;28;20043;-83
2023/02/03 08:13:07;;;;;;;5.50;1.83;;;14.50;76.60;;;;;;4950801;28;20205;-82
2023/02/03 08:15:33;;;;;;;7.97;1.67;;;14.40;76.40;;;;;;4942544;28;20224;-79
2023/02/03 08:17:59;;;;;;;7.63;2.08;;;14.30;76.20;;;;;;4933336;29;20563;-79
2023/02/03 08:20:25;;;;;;;7.68;2.15;;;14.20;76.00;;;;;;4957090;28;20096;-78
2023/02/03 08:22:52;;;;;;;9.02;1.90;;;14.10;75.90;;;;;;4946782;28;20035;-79
2023/02/03 08:25:18;;;;;;;6.68;2.05;;;14.00;75.70;;;;;;4949145;28;20483;-78
2023/02/03 08:27:43;;;;;;;9.10;1.83;;;13.90;76.10;;;;;;4936822;28;20054;-80
2023/02/03 08:30:14;;;;;;;10.07;2.08;;;13.80;75.40;;;;;;4957157;28;20106;-79
2023/02/03 08:32:40;;;;;;;7.25;2.42;;;13.80;75.40;;;;;;4949450;28;20594;-80
2023/02/03 08:35:06;;;;;;;7.75;2.00;;;13.70;75.20;;;;;;4952878;28;20492;-79
2023/02/03 08:37:33;;;;;;;6.97;1.95;;;13.70;75.20;;;;;;4944406;28;20485;-79
2023/02/03 08:39:59;;;;;;;6.65;1.83;;;13.60;75.00;;;;;;4959194;28;20483;-79
2023/02/03 08:42:25;;;;;;;9.82;2.28;;;13.60;75.00;;;;;;4943261;28;20062;-80
2023/02/03 08:44:51;;;;;;;7.50;1.88;;;13.50;74.70;;;;;;4946189;28;20039;-80
2023/02/03 08:47:17;;;;;;;8.27;2.42;;;13.50;74.70;;;;;;4939771;28;20043;-80
2023/02/03 08:49:44;;;;;;;10.38;2.78;;;13.40;74.50;;;;;;4944285;28;20480;-81
2023/02/03 08:52:11;;;;;;;9.18;2.95;;;13.40;74.40;;;;;;4946707;28;20070;-81
2023/02/03 08:54:38;;;;;;;7.28;1.73;;;13.40;74.40;;;;;;4943606;28;20036;-81
2023/02/03 08:57:04;;;;;;;7.45;1.67;;;13.40;74.40;;;;;;4953050;28;20035;-80
2023/02/03 08:59:30;;;;;;;5.63;2.25;;;13.40;74.30;;;;;;4942926;29;20035;-82
2023/02/03 09:01:58;;;;;;;7.45;1.63;;;13.40;74.20;;;;;;4946204;28;20614;-81
2023/02/03 09:04:25;;;;;;;7.85;1.90;;;13.40;74.40;;;;;;4944023;28;20561;-83
2023/02/03 09:06:53;;;;;;;8.40;1.80;;;13.40;74.40;;;;;;4943342;29;20043;-82
2023/02/03 09:09:20;;;;;;;7.32;1.90;;;13.50;74.50;;;;;;4925457;29;20456;-82
2023/02/03 09:11:46;;;;;;;11.00;2.55;;;13.50;74.30;;;;;;4942234;29;20031;-82
2023/02/03 09:14:12;;;;;;;9.40;2.80;;;13.50;74.20;;;;;;4943959;29;20035;-82
2023/02/03 09:16:38;;;;;;;10.63;2.95;;;13.50;74.10;;;;;;4943818;28;20023;-83
2023/02/03 09:19:04;;;;;;;6.80;2.03;;;13.50;74.00;;;;;;4942624;29;20039;-84
2023/02/03 09:21:30;;;;;;;11.05;1.67;;;13.50;73.90;;;;;;4943830;28;20039;-82
2023/02/03 09:24:02;;;;;;;6.85;2.75;;;13.50;73.90;;;;;;4943786;29;20607;-84
2023/02/03 09:26:28;;;;;;;6.67;3.10;;;13.50;73.80;;;;;;4943393;29;20047;-84
2023/02/03 09:28:54;;;;;;;11.82;1.83;;;13.50;73.70;;;;;;4943192;29;20166;-83
2023/02/03 09:31:20;;;;;;;6.22;1.70;;;13.50;73.70;;;;;;4946353;28;20038;-84
2023/02/03 09:33:46;;;;;;;11.40;3.20;;;13.50;73.70;;;;;;4945262;28;20597;-88
2023/02/03 09:36:12;;;;;;;15.48;2.97;;;13.50;73.60;;;;;;4943999;29;20031;-81
2023/02/03 09:38:38;;;;;;;6.97;1.70;;;13.50;73.60;;;;;;4943507;28;20031;-80
2023/02/03 09:41:38;;;;;;;10.13;1.80;;;13.40;73.40;;;;;;4937710;29;20047;-81
2023/02/03 09:44:29;;;;;;;7.13;1.73;;;13.40;73.40;;;;;;4936767;29;20042;-77
2023/02/03 09:46:59;;;;;;;10.77;2.55;;;13.40;73.40;;;;;;4938419;28;20212;-78
2023/02/03 09:49:52;;;;;;;9.88;2.30;;;13.40;73.50;;;;;;4941697;28;20047;-77
2023/02/03 09:52:21;;;;;;;10.75;2.95;;;13.40;73.40;;;;;;4935708;28;20525;-79
2023/02/03 09:54:57;;;;;;;8.48;1.63;;;13.30;73.30;;;;;;4945973;28;20042;-78
2023/02/03 09:57:26;;;;;;;4.15;1.90;;;13.40;73.50;;;;;;4960094;28;20045;-78
2023/02/03 09:59:55;;;;;;;8.50;2.15;;;13.40;73.40;;;;;;4938136;28;20027;-79
2023/02/03 10:02:28;;;;;;;7.40;2.17;;;13.40;73.30;;;;;;4943460;28;20487;-79
2023/02/03 10:05:20;;;;;;;11.23;3.05;;;13.40;73.20;;;;;;4942916;29;20042;-81
2023/02/03 10:07:54;;;;;;;7.28;1.80;;;13.50;73.30;;;;;;4926841;29;20953;-81
2023/02/03 10:11:09;;;;;;;7.70;2.40;;;13.50;73.20;;;;;;4948886;28;20047;-79
2023/02/03 10:13:48;;;;;;;9.13;2.20;;;13.50;73.10;;;;;;4931456;29;20058;-85
2023/02/03 10:16:35;;;;;;;9.80;2.03;;;13.50;73.10;;;;;;4933935;28;20035;-78
2023/02/03 10:19:11;;;;;;;12.15;2.60;;;13.50;73.10;;;;;;4943754;28;20097;-79
2023/02/03 10:21:43;;;;;;;9.93;2.38;;;13.50;73.00;;;;;;4945087;29;20114;-78
2023/02/03 10:24:17;;;;;;;5.88;1.98;;;13.60;73.10;;;;;;4940289;28;20354;-80
2023/02/03 10:26:43;;;;;;;8.38;2.42;;;13.60;73.10;;;;;;4944551;28;20336;-80
2023/02/03 10:29:26;;;;;;;7.85;2.30;;;13.50;72.90;;;;;;4940990;29;20054;-82
2023/02/03 10:31:54;;;;;;;12.65;3.55;;;13.50;72.90;;;;;;4944960;28;20449;-84
2023/02/03 10:34:21;;;;;;;8.70;2.72;;;13.60;73.10;;;;;;4942820;28;20391;-84
2023/02/03 10:37:03;;;;;;;9.05;2.15;;;13.60;73.10;;;;;;4937410;29;20107;-84
2023/02/03 10:39:38;;;;;;;9.30;2.60;;;13.60;73.00;;;;;;4942413;29;20031;-81
2023/02/03 10:42:05;;;;;;;8.32;1.95;;;13.60;73.00;;;;;;4942451;29;20035;-81
2023/02/03 10:44:56;;;;;;;13.07;3.30;;;13.70;73.00;;;;;;4939639;29;20022;-81
2023/02/03 10:47:44;;;;;;;9.55;2.35;;;13.70;72.90;;;;;;4938072;28;20074;-81
2023/02/03 10:50:22;;;;;;;7.97;1.88;;;13.80;72.90;;;;;;4949866;28;20093;-81
2023/02/03 10:52:48;;;;;;;10.52;2.50;;;13.90;72.90;;;;;;4955164;28;20027;-82
2023/02/03 10:55:23;;;;;;;8.02;2.25;;;13.90;72.80;;;;;;4958128;28;20569;-82
2023/02/03 10:57:50;;;;;;;8.52;2.17;;;14.00;72.90;;;;;;4959378;28;20019;-81
2023/02/03 11:00:29;;;;;;;7.18;2.22;;;14.10;72.90;;;;;;4941355;28;20031;-80
2023/02/03 11:03:02;;;;;;;8.55;3.03;;;14.10;72.70;;;;;;4947154;28;20522;-82
2023/02/03 11:05:28;;;;;;;;;;;14.10;72.60;;;;;;4948139;28;20487;-78
2023/02/03 11:07:54;;;;;;;11.80;2.47;;;14.20;72.70;;;;;;4960856;28;19925;-79
2023/02/03 11:10:34;;;;;;;9.07;1.83;;;14.20;72.60;;;;;;4942841;28;20144;-81
2023/02/03 11:13:10;;;;;;;8.80;2.10;;;14.20;72.50;;;;;;4957037;28;20483;-80
2023/02/03 11:15:37;;;;;;;8.25;3.08;;;14.30;72.60;;;;;;4951980;28;20509;-81
2023/02/03 11:18:03;;;;;;;6.93;2.95;;;14.40;72.70;;;;;;4967017;28;20590;-81
2023/02/03 11:20:29;;;;;;;6.75;1.95;;;14.50;72.70;;;;;;4949625;28;20023;-81
2023/02/03 11:22:55;;;;;;;7.15;1.73;;;14.60;72.70;;;;;;4948340;28;20039;-81
2023/02/03 11:25:28;;;;;;;6.90;1.75;;;14.70;72.60;;;;;;4941732;28;20403;-82
2023/02/03 11:27:55;;;;;;;8.15;2.50;;;14.80;72.60;;;;;;4944429;29;20035;-82
2023/02/03 11:30:28;;;;;;;5.88;1.58;;;14.90;72.60;;;;;;4942277;29;20043;-82
2023/02/03 11:32:54;;;;;;;;;;;15.00;72.50;;;;;;4931059;29;20106;-82
2023/02/03 11:35:23;;;;;;;7.68;2.13;;;15.10;72.40;;;;;;4940265;28;20445;-82
2023/02/03 11:38:00;;;;;;;7.25;2.50;;;15.20;72.30;;;;;;4947313;28;20039;-82
2023/02/03 11:40:29;;;;;;;9.18;1.85;;;15.30;72.70;;;;;;4942437;29;20483;-81
2023/02/03 11:42:55;;;;;;;8.52;2.15;;;15.40;72.30;;;;;;4939086;29;20368;-79
2023/02/03 11:45:27;;;;;;;7.60;1.75;;;15.50;72.30;;;;;;4940458;29;20044;-83
2023/02/03 11:48:10;;;;;;;5.05;1.70;;;15.50;72.10;;;;;;4936972;28;20118;-84
2023/02/03 11:51:14;;;;;;;7.75;2.33;;;15.60;72.00;;;;;;4946607;28;20035;-85
2023/02/03 11:54:00;;;;;;;7.75;2.17;;;15.60;71.90;;;;;;4948530;28;20126;-84
2023/02/03 11:56:32;;;;;;;7.00;2.25;;;15.70;72.00;;;;;;4950877;28;20870;-80
2023/02/03 11:59:04;;;;;;;7.15;1.90;;;15.70;71.90;;;;;;4945604;28;20122;-80
2023/02/03 12:01:56;;;;;;;7.77;2.37;;;15.80;71.90;;;;;;4944448;28;20387;-82
2023/02/03 12:04:41;;;;;;;6.63;1.70;;;15.90;72.00;;;;;;4934866;28;20309;-83
2023/02/03 12:07:19;;;;;;;6.07;1.83;;;16.00;71.90;;;;;;4964512;28;20130;-82
2023/02/03 12:10:09;;;;;;;8.93;2.70;;;16.20;71.80;;;;;;4948698;28;20049;-82
2023/02/03 12:13:16;;;;;;;4.07;1.50;;;16.30;71.70;;;;;;4930573;29;20411;-84
2023/02/03 12:15:54;;;;;;;6.57;1.70;;;16.40;71.40;;;;;;4926341;29;20071;-79
2023/02/03 12:18:42;;;;;;;6.32;1.92;;;16.50;71.40;;;;;;4936029;29;20510;-83
2023/02/03 12:21:22;;;;;;;8.70;1.77;;;16.50;71.40;;;;;;4945070;29;20123;-83
2023/02/03 12:24:12;;;;;;;6.53;3.05;;;16.60;71.40;;;;;;4945136;29;20274;-81
2023/02/03 12:26:45;;;;;;;7.72;2.20;;;16.60;71.20;;;;;;4943901;29;20258;-79
2023/02/03 12:29:13;;;;;;;;;;;16.60;71.00;;;;;;4939488;28;20051;-82
2023/02/03 12:32:04;;;;;;;9.57;3.10;;;16.60;71.00;;;;;;4946688;28;19910;-80
2023/02/03 12:34:37;;;;;;;8.77;3.10;;;16.60;71.00;;;;;;4935591;29;20055;-80
2023/02/03 12:37:14;;;;;;;;;;;16.60;71.00;;;;;;4943129;29;20568;-80
2023/02/03 12:39:58;;;;;;;6.10;2.15;;;16.50;70.80;;;;;;4947911;28;20769;-83
2023/02/03 12:42:36;;;;;;;6.45;2.20;;;16.50;70.90;;;;;;4947988;28;20039;-80
2023/02/03 12:45:13;;;;;;;10.65;2.72;;;16.50;71.00;;;;;;4933348;29;20078;-81
2023/02/03 12:47:56;;;;;;;7.28;2.30;;;16.50;70.90;;;;;;4937792;28;20035;-82
2023/02/03 12:50:28;;;;;;;4.82;1.88;;;16.50;70.70;;;;;;4940111;28;20064;-82
2023/02/03 12:53:10;;;;;;;8.67;2.07;;;16.60;70.70;;;;;;4936706;28;20428;-83
2023/02/03 12:55:49;;;;;;;7.13;2.03;;;16.70;70.60;;;;;;4944190;28;20356;-81
2023/02/03 12:58:20;;;;;;;9.10;4.05;;;16.80;70.60;;;;;;4955640;28;20099;-82
2023/02/03 13:01:09;;;;;;;9.02;2.72;;;16.90;70.40;;;;;;4941533;28;20562;-84
2023/02/03 13:04:00;;;;;;;6.05;1.80;;;17.00;70.10;;;;;;4944376;28;20053;-81
2023/02/03 13:06:51;;;;;;;7.90;2.13;;;17.10;70.00;;;;;;4942158;28;20450;-81